Aérodrome :
LOGIN :

S'inscrire | Disclaimer

   EN    FR    IT 

 










Légende :    VFR   VFR Marginal   IFR   IFR Intensif   IFR Très Intensif
Visi : 
Plafond : 
>= 8 km
>= 3000ft
5 à 8 km
1000 à 3000 ft
1500m à 5 km
500 à 1000 ft
800 à 1500m
200 à 500 ft
< 800m
< 200 ft
Symboles :   Orages  Brouillard  Fortes neiges  Fortes précipitations  Vent > 20 kt
SIGMETs :   Divers  Orages  Givrage  Turbulence  Onde Orograph.  Cendres Volcan.






- Altitude de l'aérodrome : 665 ft
- Code IATA : NOC


EIKN - Connaught / Knock- Ireland West

DERNIER METAR :
  • 111930Z 28014KT 9999 FEW020CB SCT025 03/01 Q1003 NOSIG

METARs EXPIRÉS :
  • 111900Z 30024G42KT 9999 -SHRASN SCT019CB SCT024 BKN038 03/02 Q1003 NOSIG
  • 111830Z 29014KT 9999 SCT019CB SCT024 04/02 Q1003 NOSIG
  • 111800Z 29020G32KT 270V330 9999 -SHRA SCT019CB SCT024 05/01 Q1003 NOSIG
  • 111730Z 28014KT 9999 FEW019CB SCT024 04/02 Q1003 NOSIG
  • 111700Z 28012KT 9999 VCSH FEW019CB SCT024 04/02 Q1002 NOSIG

TAF TAF EIKN
Valide du 11 à 18h jusqu'au 12 à 18h UTC


111700Z 1118/1218 28012G25KT 9999 SCT020 BKN040
TEMPO 1118/1206 5000 -SHRASNGS BKN018CB
BECMG 1118/1120 28014KT
TEMPO 1120/1212 28015G28KT



MET'MAP, la Météo Aéronautique d'un coup d'oeil ! - Copyright ORBIFLY Décembre 2007 - Disclaimer

ORBIFLY MET'MAP TEAM :

Programmation & Développement : Alexandra Zaïnal
Conception & Développement : Baudouin d'Aumeries
Co-Programmation & Développement : Marc-Olivier Méhu
Soutien technique & logistique : Manuel Goepfert

Contact : metmap@orbifly.com




SOURCES & CREDITS :

   NOAA